Time;durP1;ratioP1;P1;durP2;ratioP2;P2;SDS_P1;SDS_P2;PMS_P1;PMS_P2;Temp;Humidity;BMP_temperature;BMP_pressure;BME280_temperature;BME280_humidity;BME280_pressure;Samples;Min_cycle;Max_cycle;Signal;HPM_P1;HPM_P2
2021/05/04 03:01:08;;;;;;;2.50;1.37;;;;;;;7.23;100.00;99903.66;1742018;77;21578;-61
2021/05/04 03:03:37;;;;;;;2.10;1.12;;;;;;;7.73;100.00;99908.41;1741403;82;21104;-60
2021/05/04 03:06:05;;;;;;;1.90;1.40;;;;;;;8.12;100.00;99910.05;1712703;83;21192;-62
2021/05/04 03:08:33;;;;;;;2.60;1.50;;;;;;;8.42;100.00;99915.34;1749756;81;21521;-60
2021/05/04 03:11:02;;;;;;;1.70;1.10;;;;;;;8.60;100.00;99913.21;1754939;80;21854;-60
2021/05/04 03:13:32;;;;;;;2.77;1.30;;;;;;;8.79;100.00;99905.38;1776482;80;21736;-60
2021/05/04 03:16:00;;;;;;;3.23;1.47;;;;;;;8.93;100.00;99914.94;1743509;80;21348;-61
2021/05/04 03:18:28;;;;;;;2.10;1.30;;;;;;;8.95;100.00;99919.47;1744879;81;22453;-60
2021/05/04 03:20:57;;;;;;;3.23;1.80;;;;;;;8.90;100.00;99926.18;1744214;81;21353;-66
2021/05/04 03:23:25;;;;;;;5.50;1.40;;;;;;;8.77;100.00;99926.83;1744182;81;21903;-60
2021/05/04 03:25:54;;;;;;;1.70;1.00;;;;;;;8.69;100.00;99934.71;1743503;82;21309;-61
2021/05/04 03:28:22;;;;;;;3.47;1.43;;;;;;;8.67;100.00;99931.47;1743965;81;21239;-60
2021/05/04 03:30:50;;;;;;;2.43;1.00;;;;;;;8.66;100.00;99922.07;1744269;81;21860;-65
2021/05/04 03:33:19;;;;;;;2.37;1.20;;;;;;;8.67;100.00;99927.57;1729939;81;21344;-65
2021/05/04 03:35:47;;;;;;;4.13;1.50;;;;;;;8.69;100.00;99928.22;1743930;81;21375;-64
2021/05/04 03:38:15;;;;;;;2.60;1.20;;;;;;;8.70;100.00;99935.02;1744728;81;21335;-60
2021/05/04 03:40:58;;;;;;;2.17;1.07;;;;;;;8.71;100.00;99928.83;1775438;79;21765;-60
2021/05/04 03:43:26;;;;;;;2.40;1.47;;;;;;;8.68;100.00;99931.80;1820168;77;21793;-62
2021/05/04 03:45:55;;;;;;;2.60;1.20;;;;;;;8.71;100.00;99944.42;1820867;78;21493;-61
2021/05/04 03:48:23;;;;;;;2.30;1.17;;;;;;;8.87;100.00;99945.56;1820484;77;21357;-62
2021/05/04 03:50:51;;;;;;;4.03;1.20;;;;;;;9.18;100.00;99946.66;1820796;77;21231;-61
2021/05/04 03:53:21;;;;;;;2.40;1.20;;;;;;;9.52;100.00;99953.56;1820472;78;21330;-63
2021/05/04 03:55:49;;;;;;;2.40;1.20;;;;;;;9.82;100.00;99959.48;1815128;77;21893;-62
2021/05/04 03:58:18;;;;;;;3.13;1.13;;;;;;;10.24;100.00;99956.05;1811930;77;21339;-66
2021/05/04 04:00:46;;;;;;;2.80;1.13;;;;;;;10.70;100.00;99951.20;1817963;77;21617;-61
2021/05/04 04:03:15;;;;;;;3.03;1.20;;;;;;;11.25;100.00;99960.44;1808467;78;21515;-61
2021/05/04 04:05:43;;;;;;;1.73;1.20;;;;;;;11.99;100.00;99954.92;1807511;77;21619;-61
2021/05/04 04:08:12;;;;;;;1.80;1.07;;;;;;;12.80;100.00;99950.23;1814785;78;21777;-62
2021/05/04 04:10:41;;;;;;;2.93;1.33;;;;;;;13.44;91.28;99948.63;1803854;77;21633;-62
2021/05/04 04:13:09;;;;;;;3.20;1.40;;;;;;;13.98;84.65;99946.02;1817354;77;21238;-64
2021/05/04 04:15:38;;;;;;;1.97;1.20;;;;;;;14.72;78.84;99948.31;1820887;77;21413;-62
2021/05/04 04:18:06;;;;;;;2.20;1.23;;;;;;;15.51;68.96;99950.52;1806017;77;21122;-61
2021/05/04 04:20:35;;;;;;;2.20;1.20;;;;;;;16.20;63.22;99950.15;1812192;78;21052;-67
2021/05/04 04:23:03;;;;;;;2.23;1.20;;;;;;;16.83;55.63;99944.74;1821276;77;22447;-67
2021/05/04 04:25:32;;;;;;;3.13;1.07;;;;;;;17.26;52.14;99945.08;1820484;78;23152;-62
2021/05/04 04:28:00;;;;;;;2.40;1.17;;;;;;;17.59;49.26;99948.85;1800841;77;21145;-62
2021/05/04 04:30:29;;;;;;;3.00;1.27;;;;;;;17.84;46.83;99949.86;1805143;78;20980;-66
2021/05/04 04:32:57;;;;;;;2.00;1.30;;;;;;;18.01;44.91;99949.86;1804675;77;21546;-62
2021/05/04 04:35:25;;;;;;;1.37;0.93;;;;;;;17.98;44.22;99953.76;1814962;77;21003;-61
2021/05/04 04:37:54;;;;;;;4.60;1.13;;;;;;;18.09;43.85;99959.20;1815911;77;21582;-61
2021/05/04 04:40:23;;;;;;;3.23;1.37;;;;;;;18.32;42.67;99972.75;1808959;77;21135;-66
2021/05/04 04:42:51;;;;;;;2.17;1.10;;;;;;;18.55;42.54;99969.93;1791986;78;21150;-59
2021/05/04 04:45:19;;;;;;;1.70;1.00;;;;;;;18.91;41.45;99963.86;1804604;78;21140;-62
2021/05/04 04:47:47;;;;;;;2.30;1.50;;;;;;;19.53;40.06;99958.20;1815973;77;21192;-62
2021/05/04 04:50:16;;;;;;;3.13;1.20;;;;;;;19.87;38.22;99962.80;1784808;77;21199;-61
2021/05/04 04:52:45;;;;;;;2.23;1.30;;;;;;;20.16;37.78;99964.63;1791733;77;21105;-62
2021/05/04 04:55:13;;;;;;;2.10;1.37;;;;;;;20.69;37.31;99954.67;1785633;77;21104;-64
2021/05/04 04:57:42;;;;;;;2.77;1.17;;;;;;;21.24;35.99;99958.06;1813811;77;21432;-62
2021/05/04 05:00:12;;;;;;;4.00;1.40;;;;;;;21.61;34.23;99969.85;1811419;77;21017;-63
2021/05/04 05:02:40;;;;;;;3.10;1.47;;;;;;;21.80;33.89;99968.02;1796544;78;21341;-68
2021/05/04 05:05:10;;;;;;;2.72;1.47;;;;;;;22.16;33.83;99965.39;1803838;78;21925;-66
2021/05/04 05:07:38;;;;;;;2.37;1.30;;;;;;;22.57;32.28;99963.48;1807854;77;21525;-64
2021/05/04 05:10:08;;;;;;;2.10;1.40;;;;;;;22.45;31.50;99964.30;1807212;77;21543;-63
2021/05/04 05:12:38;;;;;;;2.52;1.60;;;;;;;22.35;32.28;99957.17;1794876;78;20874;-65
2021/05/04 05:15:08;;;;;;;2.50;1.50;;;;;;;22.74;32.16;99963.19;1788853;78;21196;-69
2021/05/04 05:17:37;;;;;;;4.08;1.60;;;;;;;23.14;31.30;99959.58;1783693;77;21220;-63
2021/05/04 05:20:07;;;;;;;2.10;1.52;;;;;;;23.41;30.00;99960.53;1790778;78;21595;-67
2021/05/04 05:22:35;;;;;;;2.15;1.47;;;;;;;23.17;29.96;99964.89;1793998;77;21246;-63
2021/05/04 05:25:05;;;;;;;2.58;1.42;;;;;;;23.09;29.57;99968.13;1805086;77;21017;-65
2021/05/04 05:27:33;;;;;;;3.80;1.50;;;;;;;23.16;30.34;99960.66;1793923;77;21237;-61
2021/05/04 05:30:09;;;;;;;3.93;1.40;;;;;;;23.39;29.63;99971.96;1805541;77;63124;-68
2021/05/04 05:32:37;;;;;;;2.80;2.00;;;;;;;23.57;29.17;99965.21;1722178;80;21500;-65
2021/05/04 05:35:06;;;;;;;3.08;1.70;;;;;;;23.64;29.56;99960.89;1722349;79;21180;-69
2021/05/04 05:37:35;;;;;;;3.75;1.80;;;;;;;23.59;28.92;99970.24;1728821;79;21596;-69
2021/05/04 05:40:05;;;;;;;2.92;1.60;;;;;;;23.12;29.06;99964.39;1734585;79;22254;-67
2021/05/04 05:42:33;;;;;;;2.53;1.40;;;;;;;22.47;29.40;99983.44;1723880;79;21606;-67
2021/05/04 05:45:02;;;;;;;3.47;1.50;;;;;;;21.77;29.92;99979.16;1725699;79;21484;-68
2021/05/04 05:47:30;;;;;;;2.40;1.45;;;;;;;21.02;30.92;99993.23;1732021;79;21535;-66
2021/05/04 05:49:58;;;;;;;2.77;1.40;;;;;;;20.22;32.09;99987.94;1743773;79;21491;-66
2021/05/04 05:52:27;;;;;;;3.73;1.40;;;;;;;19.93;32.94;99982.17;1728249;81;22344;-67
2021/05/04 05:54:56;;;;;;;2.43;1.40;;;;;;;20.05;33.16;99978.03;1721174;79;21483;-68
2021/05/04 05:57:23;;;;;;;1.83;1.13;;;;;;;20.15;32.95;99974.95;1722191;81;21204;-67
2021/05/04 05:59:52;;;;;;;2.13;1.30;;;;;;;20.23;32.66;99975.00;1734801;79;20994;-69
2021/05/04 06:02:20;;;;;;;2.10;1.20;;;;;;;20.22;33.02;99971.27;1728601;81;21204;-68
2021/05/04 06:04:48;;;;;;;2.50;1.50;;;;;;;20.44;32.97;99977.78;1715034;79;21539;-68
2021/05/04 06:07:16;;;;;;;1.83;1.20;;;;;;;20.86;31.89;99981.23;1721411;81;21115;-67
2021/05/04 06:09:46;;;;;;;2.87;1.40;;;;;;;21.13;31.50;99971.80;1726022;81;21022;-70
2021/05/04 06:12:14;;;;;;;2.10;1.23;;;;;;;21.44;31.37;99969.81;1724124;80;21151;-68
2021/05/04 06:14:42;;;;;;;4.00;1.65;;;;;;;21.75;30.12;99977.31;1724365;80;21240;-67
2021/05/04 06:17:10;;;;;;;1.95;1.25;;;;;;;21.79;29.61;99971.75;1726026;82;22112;-68
2021/05/04 06:19:39;;;;;;;1.55;1.07;;;;;;;21.64;29.65;99981.02;1721768;79;21157;-66
2021/05/04 06:22:07;;;;;;;2.00;1.37;;;;;;;21.58;30.02;99973.02;1751287;79;21210;-66
2021/05/04 06:24:35;;;;;;;4.12;1.30;;;;;;;21.65;30.04;99971.98;1719445;81;21150;-67
2021/05/04 06:27:05;;;;;;;2.98;1.22;;;;;;;21.89;29.22;99974.39;1731372;82;21599;-67
2021/05/04 06:29:42;;;;;;;1.80;1.22;;;;;;;22.02;28.41;99967.23;1723589;81;21192;-67
2021/05/04 06:32:11;;;;;;;2.15;1.30;;;;;;;21.97;28.62;99981.02;1759816;79;21577;-68
2021/05/04 06:34:41;;;;;;;2.77;1.50;;;;;;;21.98;28.48;99964.85;1719189;82;21500;-68
2021/05/04 06:37:10;;;;;;;1.95;1.30;;;;;;;21.97;28.88;99969.91;1791437;79;21110;-65
2021/05/04 06:39:39;;;;;;;1.70;1.20;;;;;;;22.05;29.12;99973.35;1700781;82;21507;-70
2021/05/04 06:42:10;;;;;;;2.87;1.30;;;;;;;22.24;28.73;99980.81;1778151;79;21351;-66
2021/05/04 06:44:38;;;;;;;1.98;1.30;;;;;;;22.19;28.01;99979.47;1781318;79;21376;-65
2021/05/04 06:47:08;;;;;;;2.35;1.50;;;;;;;22.10;28.38;99977.86;1778520;79;20984;-69
2021/05/04 06:49:39;;;;;;;2.60;1.45;;;;;;;22.11;29.22;99980.23;1772874;79;21057;-68
2021/05/04 06:52:07;;;;;;;2.65;1.40;;;;;;;22.18;29.02;99979.21;1785388;79;21161;-69
2021/05/04 06:54:36;;;;;;;3.13;1.60;;;;;;;21.99;28.67;99990.33;1787357;79;21282;-66
2021/05/04 06:57:05;;;;;;;3.05;1.82;;;;;;;21.60;28.96;99989.48;1782236;79;21190;-66
2021/05/04 06:59:34;;;;;;;4.33;2.10;;;;;;;21.30;30.05;99998.66;1786551;79;21110;-70
2021/05/04 07:02:03;;;;;;;2.90;1.80;;;;;;;20.90;30.52;99990.26;1780719;79;21129;-71
2021/05/04 07:04:31;;;;;;;2.60;1.50;;;;;;;20.18;31.67;99998.77;1783679;79;21046;-69
2021/05/04 07:07:00;;;;;;;2.17;1.50;;;;;;;19.56;31.88;100001.34;1771409;79;21349;-67
2021/05/04 07:09:28;;;;;;;2.33;1.30;;;;;;;19.24;33.07;100011.00;1781829;78;21163;-67
2021/05/04 07:11:59;;;;;;;3.53;1.60;;;;;;;19.34;32.71;99997.92;1781969;78;21252;-68
2021/05/04 07:14:29;;;;;;;4.55;1.65;;;;;;;19.68;33.39;100003.88;1780534;79;22077;-64
2021/05/04 07:17:00;;;;;;;2.50;1.30;;;;;;;20.07;33.49;100004.49;1792098;79;21055;-68
2021/05/04 07:19:29;;;;;;;4.83;1.52;;;;;;;20.21;32.16;100007.53;1783523;78;24816;-69
2021/05/04 07:21:58;;;;;;;3.77;1.70;;;;;;;20.08;32.67;100008.75;1766233;79;21085;-70
2021/05/04 07:24:27;;;;;;;2.43;1.50;;;;;;;20.12;32.98;100003.23;1799945;79;21218;-68
2021/05/04 07:26:55;;;;;;;2.93;1.70;;;;;;;20.14;33.00;100005.08;1758010;79;21121;-67
2021/05/04 07:29:24;;;;;;;2.00;1.30;;;;;;;20.17;33.02;99994.00;1781736;78;21556;-65
2021/05/04 07:31:52;;;;;;;3.57;1.70;;;;;;;20.31;33.33;100001.00;1796145;78;21424;-69
2021/05/04 07:34:21;;;;;;;3.47;1.77;;;;;;;20.38;33.08;100010.03;1732708;82;21499;-67
2021/05/04 07:36:49;;;;;;;3.00;1.40;;;;;;;20.47;33.03;100007.20;1733245;81;21196;-66
2021/05/04 07:39:18;;;;;;;3.97;1.60;;;;;;;20.50;32.30;100012.55;1792198;79;21508;-66
2021/05/04 07:41:46;;;;;;;2.37;1.50;;;;;;;20.55;31.82;100004.63;1791415;78;20994;-66
2021/05/04 07:44:15;;;;;;;3.67;1.20;;;;;;;20.67;32.54;100007.88;1795136;79;21533;-67
2021/05/04 07:46:43;;;;;;;3.03;1.40;;;;;;;20.87;31.92;100007.20;1797327;79;21125;-65
2021/05/04 07:49:18;;;;;;;3.20;1.70;;;;;;;21.20;31.16;100005.23;1802690;79;21489;-66
2021/05/04 07:51:42;;;;;;;4.28;1.67;;;;;;;21.34;30.67;100013.02;1794478;79;21535;-66
2021/05/04 07:54:10;;;;;;;2.90;1.63;;;;;;;21.08;31.07;100006.25;1800079;79;21121;-68
2021/05/04 07:56:40;;;;;;;3.65;2.00;;;;;;;21.06;31.00;100013.68;1800933;79;21129;-65
2021/05/04 07:59:10;;;;;;;2.37;1.60;;;;;;;21.10;30.83;100000.17;1798181;77;22127;-66
2021/05/04 08:01:38;;;;;;;4.37;1.53;;;;;;;21.17;30.67;100001.77;1740465;82;21574;-68
2021/05/04 08:04:10;;;;;;;3.27;1.30;;;;;;;21.19;29.79;100017.70;1795558;77;21184;-66
2021/05/04 08:06:39;;;;;;;3.02;1.32;;;;;;;21.04;30.48;100000.41;1784337;77;21200;-68
2021/05/04 08:09:08;;;;;;;4.20;1.50;;;;;;;21.05;30.56;99997.48;1801502;79;21189;-65
2021/05/04 08:11:36;;;;;;;3.63;1.10;;;;;;;21.19;30.21;100001.00;1792362;79;21133;-65
2021/05/04 08:14:07;;;;;;;2.57;1.20;;;;;;;21.25;29.14;99998.12;1794376;77;21101;-67
2021/05/04 08:16:37;;;;;;;2.40;1.57;;;;;;;21.26;30.00;100001.56;1791007;79;21066;-65
2021/05/04 08:19:06;;;;;;;4.63;1.43;;;;;;;21.53;30.42;100004.06;1790657;78;21127;-66
2021/05/04 08:21:36;;;;;;;5.53;1.90;;;;;;;21.80;28.87;99992.70;1739536;82;21809;-69
2021/05/04 08:24:06;;;;;;;3.15;1.35;;;;;;;21.89;29.08;99996.15;1788759;79;21950;-67
2021/05/04 08:26:34;;;;;;;3.73;1.37;;;;;;;21.89;29.08;99996.15;1787615;77;21104;-65
2021/05/04 08:29:03;;;;;;;2.67;1.30;;;;;;;22.02;29.37;99988.47;1785640;79;21128;-68
2021/05/04 08:31:33;;;;;;;1.90;1.20;;;;;;;22.17;28.00;99995.67;1799214;78;21243;-66
2021/05/04 08:34:02;;;;;;;3.37;1.10;;;;;;;22.01;28.36;99998.02;1805371;79;22613;-66
2021/05/04 08:36:31;;;;;;;4.10;1.40;;;;;;;21.92;27.80;99983.16;1798744;79;21131;-65
2021/05/04 08:38:59;;;;;;;2.53;1.20;;;;;;;21.76;28.50;99999.59;1784261;79;21564;-67
2021/05/04 08:41:28;;;;;;;2.77;1.20;;;;;;;21.74;28.35;99996.92;1804617;79;21624;-66
2021/05/04 08:43:57;;;;;;;2.37;1.40;;;;;;;21.72;28.20;99993.75;1807332;79;21214;-66
2021/05/04 08:46:25;;;;;;;3.80;1.83;;;;;;;21.86;28.34;99982.91;1805761;79;21470;-66
2021/05/04 08:48:53;;;;;;;3.30;1.57;;;;;;;22.05;28.58;100003.08;1788979;79;21136;-67
2021/05/04 08:51:21;;;;;;;3.17;1.37;;;;;;;22.07;27.21;99991.12;1731030;82;21136;-65
2021/05/04 08:53:51;;;;;;;4.13;1.17;;;;;;;22.02;27.62;99992.45;1801756;79;21186;-69
2021/05/04 08:56:20;;;;;;;2.87;1.07;;;;;;;21.93;27.77;100001.19;1798708;78;21381;-67
2021/05/04 08:58:48;;;;;;;6.60;1.67;;;;;;;21.79;27.75;100000.40;1790514;79;21361;-67
2021/05/04 09:01:17;;;;;;;4.60;1.20;;;;;;;21.72;27.73;99987.13;1802759;79;21166;-72
2021/05/04 09:03:48;;;;;;;3.17;1.20;;;;;;;21.73;27.78;99985.52;1727953;81;21522;-67
2021/05/04 09:06:24;;;;;;;3.90;1.20;;;;;;;21.74;27.49;99996.92;1805256;79;21479;-67
2021/05/04 09:09:02;;;;;;;3.35;1.30;;;;;;;21.78;27.82;100000.64;1774618;79;21129;-67
2021/05/04 09:14:11;;;;;;;1.77;1.10;;;;;;;21.87;27.52;99993.77;1798058;78;21416;-67
2021/05/04 09:16:38;;;;;;;3.70;1.55;;;;;;;21.83;27.38;100003.33;1800164;79;21121;-68
2021/05/04 09:21:43;;;;;;;2.43;1.27;;;;;;;21.72;26.78;99996.41;1796539;77;21113;-66
2021/05/04 09:24:26;;;;;;;2.97;1.00;;;;;;;21.56;27.46;99992.94;1798463;79;22744;-68
2021/05/04 09:27:06;;;;;;;2.70;1.30;;;;;;;21.51;26.80;100002.19;1802513;79;21165;-68
2021/05/04 09:29:45;;;;;;;16.60;11.53;;;;;;;21.26;26.92;99993.61;1806016;79;20978;-68
2021/05/04 09:32:27;;;;;;;48.30;39.70;;;;;;;21.03;27.32;99999.61;1800063;78;21663;-67
2021/05/04 09:35:02;;;;;;;31.13;26.10;;;;;;;21.05;27.34;100008.09;1803240;79;21002;-67
2021/05/04 09:37:37;;;;;;;7.03;4.73;;;;;;;21.17;27.38;100005.75;1799120;79;21362;-71
2021/05/04 09:40:26;;;;;;;9.13;5.57;;;;;;;21.33;26.89;100008.78;1737384;82;21562;-66
2021/05/04 09:43:21;;;;;;;9.63;6.53;;;;;;;21.33;26.72;100007.45;1794030;79;22487;-66
2021/05/04 09:45:59;;;;;;;3.73;2.27;;;;;;;21.27;26.69;99998.64;1804621;79;21152;-67
2021/05/04 09:48:33;;;;;;;8.13;5.73;;;;;;;21.44;27.14;99990.52;1802934;79;21789;-67
2021/05/04 09:51:19;;;;;;;3.50;1.77;;;;;;;21.67;26.93;100008.31;1798658;78;21355;-66
2021/05/04 09:53:50;;;;;;;14.27;9.27;;;;;;;21.82;25.88;99997.73;1801969;79;21568;-68
2021/05/04 09:56:36;;;;;;;7.33;4.97;;;;;;;21.85;26.42;100010.47;1799103;79;20932;-67
2021/05/04 09:59:04;;;;;;;4.93;1.53;;;;;;;22.00;25.95;99997.75;1801741;79;21288;-69
2021/05/04 10:01:33;;;;;;;3.50;1.33;;;;;;;22.06;25.61;99990.07;1808562;77;21108;-66
2021/05/04 10:04:03;;;;;;;8.40;4.30;;;;;;;22.06;24.99;99988.20;1796372;79;22133;-68
2021/05/04 10:06:31;;;;;;;4.30;2.53;;;;;;;21.93;25.36;99987.92;1767944;79;21142;-67
2021/05/04 10:08:59;;;;;;;10.27;4.53;;;;;;;21.81;25.47;99995.61;1790073;79;20978;-69
2021/05/04 10:11:27;;;;;;;7.40;3.10;;;;;;;21.69;25.68;100002.23;1790407;79;21471;-67
2021/05/04 10:13:57;;;;;;;6.17;1.90;;;;;;;21.64;26.04;99999.05;1734440;82;21136;-69
2021/05/04 10:16:30;;;;;;;2.20;1.20;;;;;;;21.56;25.70;99985.77;1804171;79;21414;-68
2021/05/04 10:19:05;;;;;;;3.07;1.67;;;;;;;21.47;25.86;100009.86;1784476;79;21544;-69
2021/05/04 10:21:33;;;;;;;8.47;5.57;;;;;;;21.37;25.83;100002.69;1800541;79;21133;-66
2021/05/04 10:24:04;;;;;;;8.97;5.03;;;;;;;21.31;26.69;99989.64;1785467;77;21539;-68
2021/05/04 10:26:32;;;;;;;7.20;2.73;;;;;;;21.43;25.90;99990.23;1787944;77;21050;-66
2021/05/04 10:29:04;;;;;;;6.37;1.20;;;;;;;21.47;25.31;99997.14;1788509;79;21654;-69
2021/05/04 10:31:46;;;;;;;6.07;3.90;;;;;;;21.36;25.09;100007.70;1799139;79;21020;-66
2021/05/04 10:34:29;;;;;;;13.53;10.60;;;;;;;21.11;25.65;99995.14;1785973;79;21237;-66
2021/05/04 10:37:03;;;;;;;5.40;3.30;;;;;;;21.16;26.01;100010.79;1780449;78;21212;-70
2021/05/04 10:39:48;;;;;;;4.60;1.53;;;;;;;21.26;25.89;100002.36;1779076;78;21515;-68
2021/05/04 10:42:36;;;;;;;4.30;1.43;;;;;;;21.25;25.20;99995.97;1779634;78;21248;-67
2021/05/04 10:45:10;;;;;;;6.87;2.47;;;;;;;21.21;25.65;99997.55;1788331;79;21102;-67
2021/05/04 10:47:46;;;;;;;4.13;2.07;;;;;;;21.31;25.98;100000.24;1724422;82;21068;-67
2021/05/04 10:50:23;;;;;;;3.87;1.33;;;;;;;21.40;26.08;100001.35;1760897;80;21235;-68
2021/05/04 10:53:00;;;;;;;3.60;1.40;;;;;;;21.49;26.02;99995.03;1727332;82;21213;-67
2021/05/04 10:55:58;;;;;;;5.00;1.60;;;;;;;21.61;25.74;100000.89;1736470;81;21220;-71
2021/05/04 10:58:32;;;;;;;5.00;1.20;;;;;;;21.59;25.12;99998.52;1725964;82;21046;-64
2021/05/04 11:01:08;;;;;;;7.43;1.23;;;;;;;21.51;26.01;99995.55;1711618;80;21126;-69
2021/05/04 11:03:47;;;;;;;2.53;0.90;;;;;;;21.72;25.50;99997.20;1743771;80;21700;-69
2021/05/04 11:06:30;;;;;;;2.33;1.20;;;;;;;21.70;25.13;99989.23;1749095;80;21585;-69
2021/05/04 11:09:09;;;;;;;4.37;1.20;;;;;;;21.44;25.15;99983.89;1780119;78;21352;-67
2021/05/04 11:11:41;;;;;;;4.60;1.87;;;;;;;21.15;25.57;99984.81;1792458;79;21176;-67
2021/05/04 11:14:20;;;;;;;;;;;;;;;20.98;26.30;99992.95;1785441;78;21154;-66
2021/05/04 11:16:58;;;;;;;5.35;3.00;;;;;;;21.02;26.52;99992.70;1770904;78;20134;-66
2021/05/04 11:19:33;;;;;;;6.57;3.10;;;;;;;21.09;26.71;99987.95;1778865;78;21171;-67
2021/05/04 11:22:22;;;;;;;8.17;4.33;;;;;;;21.06;25.80;99992.48;1759543;79;21260;-67
2021/05/04 11:24:52;;;;;;;2.87;1.23;;;;;;;20.95;25.80;99988.19;1785536;77;21244;-68
2021/05/04 11:27:27;;;;;;;6.53;4.33;;;;;;;20.93;25.93;99990.81;1781051;78;21504;-67
2021/05/04 11:29:59;;;;;;;4.17;1.60;;;;;;;20.91;26.22;99992.41;1783687;79;20928;-67
2021/05/04 11:32:44;;;;;;;2.40;1.30;;;;;;;20.80;26.26;99988.90;1782129;78;21231;-68
2021/05/04 11:35:14;;;;;;;3.67;1.50;;;;;;;20.59;26.15;99995.91;1804260;77;21331;-66
2021/05/04 11:37:48;;;;;;;4.10;1.43;;;;;;;20.41;26.74;99992.32;1799039;77;21636;-68
2021/05/04 11:40:23;;;;;;;12.20;1.80;;;;;;;20.27;26.43;99995.15;1784672;77;21516;-66
2021/05/04 11:43:02;;;;;;;5.13;1.43;;;;;;;20.07;26.75;99992.59;1804852;77;20966;-69
2021/05/04 11:45:32;;;;;;;4.03;1.00;;;;;;;20.04;26.84;99992.28;1807829;78;21114;-69
2021/05/04 11:48:07;;;;;;;7.10;4.33;;;;;;;19.96;26.94;99993.55;1740477;80;21369;-67
2021/05/04 11:50:37;;;;;;;5.07;1.60;;;;;;;19.95;26.90;99988.52;1798460;79;21124;-66
2021/05/04 11:53:10;;;;;;;4.47;2.10;;;;;;;20.01;26.56;99989.64;1792272;79;21026;-68
2021/05/04 11:55:44;;;;;;;4.77;1.97;;;;;;;20.02;26.39;99991.23;1724548;82;21532;-68
2021/05/04 11:58:24;;;;;;;2.40;1.10;;;;;;;20.01;26.51;99991.49;1756283;80;20947;-68
2021/05/04 12:01:04;;;;;;;6.73;2.27;;;;;;;20.06;26.10;99991.52;1800361;79;21212;-69
2021/05/04 12:03:33;;;;;;;8.93;1.60;;;;;;;19.96;26.18;99993.55;1785668;77;28524;-66
2021/05/04 12:06:03;;;;;;;3.40;1.30;;;;;;;19.84;26.13;99991.59;1801967;79;21120;-65
2021/05/04 12:08:32;;;;;;;4.10;0.98;;;;;;;19.82;26.80;99989.20;1794475;79;21062;-68
2021/05/04 12:11:01;;;;;;;2.40;0.80;;;;;;;19.84;26.79;99991.59;1796692;79;21456;-65
2021/05/04 12:13:31;;;;;;;2.72;1.05;;;;;;;19.74;26.83;99990.98;1786590;77;21188;-65
2021/05/04 12:16:05;;;;;;;2.40;0.90;;;;;;;19.53;26.71;99996.55;1791327;77;21049;-67
2021/05/04 12:18:35;;;;;;;2.97;1.17;;;;;;;19.28;27.32;99986.50;1791330;78;21651;-67
2021/05/04 12:21:09;;;;;;;2.20;0.90;;;;;;;19.30;27.45;99994.17;1793198;79;21474;-68
2021/05/04 12:23:42;;;;;;;2.77;0.97;;;;;;;19.56;27.44;99982.04;1795751;78;21100;-66
2021/05/04 12:26:16;;;;;;;3.13;0.73;;;;;;;19.90;27.04;99986.63;1794154;77;21433;-67
2021/05/04 12:28:55;;;;;;;2.57;0.70;;;;;;;20.24;26.59;99987.70;1791102;77;21144;-67
2021/05/04 12:31:35;;;;;;;2.07;0.80;;;;;;;20.31;25.94;99986.97;1789868;77;21134;-67
2021/05/04 12:34:04;;;;;;;3.03;1.10;;;;;;;20.21;26.38;99985.56;1795841;77;21471;-68
2021/05/04 12:36:47;;;;;;;3.13;1.00;;;;;;;20.15;25.88;99968.33;1791367;77;21514;-69
2021/05/04 12:42:22;;;;;;;3.63;0.80;;;;;;;20.24;25.88;99971.83;1821140;77;26918;-67
2021/05/04 12:44:50;;;;;;;2.93;0.70;;;;;;;20.02;25.89;99989.91;1778179;79;20939;-68
2021/05/04 12:47:19;;;;;;;1.20;0.60;;;;;;;19.73;26.16;99989.36;1792748;79;22725;-69
2021/05/04 12:49:49;;;;;;;2.87;1.20;;;;;;;19.50;26.35;99995.71;1736433;82;21332;-65
2021/05/04 12:52:19;;;;;;;4.33;0.90;;;;;;;19.38;26.46;99996.38;1768920;80;21615;-66
2021/05/04 12:54:52;;;;;;;3.50;0.70;;;;;;;19.40;26.66;99979.77;1735680;80;20959;-68
2021/05/04 12:57:25;;;;;;;2.90;1.00;;;;;;;19.58;26.66;99995.80;1745014;80;21065;-65
2021/05/04 12:59:57;;;;;;;2.90;0.93;;;;;;;19.74;26.37;99998.12;1772947;80;21161;-68
2021/05/04 13:02:30;;;;;;;2.37;1.03;;;;;;;19.80;26.35;100003.72;1764024;80;21093;-68
2021/05/04 13:05:03;;;;;;;3.20;1.00;;;;;;;19.80;26.24;100000.55;1744063;80;21824;-67
2021/05/04 13:07:43;;;;;;;2.42;1.15;;;;;;;19.81;26.57;100011.92;1774985;80;20983;-65
2021/05/04 13:13:38;;;;;;;2.50;0.97;;;;;;;19.46;25.95;99998.58;1769083;80;21193;-65
2021/05/04 13:30:33;;;;;;;1.03;0.53;;;;;;;18.07;27.25;100021.94;1730976;81;21560;-67
2021/05/04 13:33:05;;;;;;;2.47;0.87;;;;;;;17.81;26.96;100020.72;1745288;80;21022;-64
2021/05/04 13:35:38;;;;;;;2.27;1.00;;;;;;;17.46;27.40;100021.09;1762795;80;21627;-66
2021/05/04 13:38:14;;;;;;;1.22;0.75;;;;;;;17.22;28.17;100019.02;1753200;80;21201;-70
2021/05/04 13:48:58;;;;;;;2.50;0.90;;;;;;;17.25;28.05;100042.27;1706864;83;21134;-64
2021/05/04 13:51:26;;;;;;;2.20;0.97;;;;;;;17.11;28.60;100040.91;1696511;83;21181;-68
2021/05/04 13:53:54;;;;;;;3.83;0.70;;;;;;;16.95;28.95;100045.05;1705663;83;21375;-65
2021/05/04 13:56:23;;;;;;;1.40;0.60;;;;;;;16.80;28.94;100038.13;1737438;82;21098;-67
2021/05/04 13:58:52;;;;;;;4.07;1.00;;;;;;;16.67;29.05;100044.40;1700572;82;21217;-65
2021/05/04 14:01:28;;;;;;;2.80;0.80;;;;;;;16.51;29.16;100043.22;1727794;82;21145;-67
2021/05/04 14:26:11;;;;;;;2.40;1.00;;;;;;;16.12;30.69;100048.58;1695273;83;21129;-66
2021/05/04 14:28:23;;;;;;;4.20;1.00;;;;;;;16.08;30.58;100044.79;1702304;83;21087;-65
2021/05/04 14:30:51;;;;;;;2.03;0.90;;;;;;;16.01;30.63;100044.88;1708023;83;21154;-66
2021/05/04 14:33:20;;;;;;;2.57;0.90;;;;;;;15.89;31.16;100044.55;1728379;82;21324;-71
2021/05/04 14:35:52;;;;;;;4.87;1.10;;;;;;;15.79;31.41;100047.70;1731344;82;21401;-68
2021/05/04 14:57:19;;;;;;;2.97;1.00;;;;;;;15.03;32.21;100062.06;1745491;81;21020;-69
2021/05/04 14:59:44;;;;;;;1.47;0.97;;;;;;;14.93;32.52;100064.41;1715086;81;22558;-64
2021/05/04 15:02:10;;;;;;;2.87;1.07;;;;;;;14.82;32.92;100082.97;1751556;78;21287;-64
2021/05/04 15:04:43;;;;;;;3.40;0.90;;;;;;;14.69;33.06;100062.87;1759126;80;21175;-66
2021/05/04 15:07:10;;;;;;;1.92;0.95;;;;;;;14.63;33.48;100074.75;1760497;78;21213;-65
2021/05/04 15:09:39;;;;;;;2.23;0.90;;;;;;;14.55;33.77;100068.75;1761587;79;21128;-65
2021/05/04 15:12:10;;;;;;;6.63;1.10;;;;;;;14.50;34.09;100074.32;1758118;80;21628;-66
2021/05/04 15:14:45;;;;;;;2.73;1.30;;;;;;;14.47;34.44;100066.36;1764684;79;22270;-67
2021/05/04 15:17:18;;;;;;;3.90;1.20;;;;;;;14.48;34.14;100081.58;1757454;79;21980;-64
2021/05/04 15:22:30;;;;;;;1.97;0.80;;;;;;;14.57;33.26;100055.41;1763423;80;21814;-67
2021/05/04 15:24:59;;;;;;;6.10;1.03;;;;;;;14.63;34.21;100059.81;1741017;80;21271;-67
2021/05/04 15:27:27;;;;;;;4.00;1.00;;;;;;;14.66;35.55;100065.11;1750159;80;21600;-67
2021/05/04 15:29:56;;;;;;;2.77;1.10;;;;;;;14.58;36.14;100076.67;1755549;80;21791;-67
2021/05/04 15:32:28;;;;;;;2.33;1.10;;;;;;;14.43;36.31;100080.09;1748860;80;21812;-67
2021/05/04 15:34:59;;;;;;;3.65;1.07;;;;;;;14.24;36.88;100080.51;1752801;78;22259;-66
2021/05/04 15:37:27;;;;;;;3.27;1.33;;;;;;;14.06;37.48;100081.23;1734874;80;21540;-65
2021/05/04 15:39:57;;;;;;;2.33;1.00;;;;;;;13.87;37.91;100091.60;1729245;80;21848;-68
2021/05/04 15:42:29;;;;;;;8.10;1.63;;;;;;;13.73;38.40;100086.11;1742363;80;21717;-68
2021/05/04 15:44:59;;;;;;;2.43;1.20;;;;;;;13.59;38.82;100087.16;1739577;81;21775;-66
2021/05/04 15:47:48;;;;;;;2.43;1.10;;;;;;;13.47;39.21;100107.15;1740187;80;21820;-64
2021/05/04 16:06:12;;;;;;;8.93;4.23;;;;;;;12.79;39.22;100097.73;1726749;82;21635;-68
2021/05/04 16:11:18;;;;;;;10.40;5.33;;;;;;;12.46;39.91;100107.34;1793322;79;22521;-68
2021/05/04 16:13:47;;;;;;;7.80;4.90;;;;;;;12.34;40.19;100111.05;1787276;79;21347;-64
2021/05/04 16:16:19;;;;;;;11.70;7.20;;;;;;;12.23;40.51;100111.13;1734870;82;21737;-63
2021/05/04 16:18:54;;;;;;;7.87;5.55;;;;;;;12.12;40.96;100110.38;1760904;79;21109;-66
2021/05/04 16:31:51;;;;;;;7.93;4.43;;;;;;;11.59;42.65;100124.48;1729041;80;21434;-65
2021/05/04 16:34:20;;;;;;;9.03;6.10;;;;;;;11.50;43.13;100121.73;1741892;81;21180;-65